RYR8771 LIBC-LIMF
Flight info
| Callsign | RYR8771 |
|---|---|
| Flight time | 1h 37m |
| Altitude | 36000 |
| Route | CDC M729 AGNIS DCT DELER DCT PEVIR DCT EDOPA DCT MALOG DCT VEXUV DCT PNZ DCT RIFFI DCT ELVIN DCT LUNAK DCT RAVAL DCT MEDAL DCT GILIO DCT ELB DCT LAGEN |
| Aircraft | B738/M-SDE2E3FGHIRWXY/LB1 |
Departure
| Time | 2026-05-04 12:31 |
|---|---|
| Airport | Crotone Sant'Anna Pythagoras Airport (LIBC) |
Arrival
| Time | 2026-05-04 14:08 |
|---|---|
| Airport | Turin Airport (LIMF) |
| Time | Latitude | Longitude | Altitude | Speed | Heading |
|---|---|---|---|---|---|
| 2026-05-04 12:04 | 38.99518 | 17.07794 | 527 ft | 0 kts | 306° |
| 2026-05-04 12:23 | 38.99513 | 17.07797 | 527 ft | 4 kts | 281° |
| 2026-05-04 12:23 | 38.99505 | 17.07820 | 526 ft | 4 kts | 306° |
| 2026-05-04 12:24 | 38.99487 | 17.07846 | 526 ft | 4 kts | 322° |
| 2026-05-04 12:24 | 38.99464 | 17.07863 | 526 ft | 4 kts | 343° |
| 2026-05-04 12:24 | 38.99453 | 17.07867 | 526 ft | 1 kts | 348° |
| 2026-05-04 12:24 | 38.99452 | 17.07867 | 526 ft | 0 kts | 348° |
| 2026-05-04 12:26 | 38.99508 | 17.07852 | 526 ft | 16 kts | 348° |
| 2026-05-04 12:27 | 38.99602 | 17.07837 | 526 ft | 11 kts | 17° |
| 2026-05-04 12:27 | 38.99639 | 17.07897 | 525 ft | 0 kts | 71° |
| 2026-05-04 12:28 | 38.99640 | 17.07900 | 525 ft | 5 kts | 70° |
| 2026-05-04 12:28 | 38.99702 | 17.08021 | 522 ft | 25 kts | 13° |
| 2026-05-04 12:29 | 38.99873 | 17.07985 | 524 ft | 24 kts | 348° |
| 2026-05-04 12:29 | 39.00073 | 17.07936 | 526 ft | 36 kts | 349° |
| 2026-05-04 12:29 | 39.00340 | 17.07869 | 528 ft | 36 kts | 348° |
| 2026-05-04 12:29 | 39.00524 | 17.07818 | 530 ft | 17 kts | 334° |
| 2026-05-04 12:30 | 39.00589 | 17.07782 | 530 ft | 9 kts | 61° |
| 2026-05-04 12:30 | 39.00554 | 17.07814 | 530 ft | 10 kts | 167° |
| 2026-05-04 12:30 | 39.00231 | 17.07896 | 529 ft | 86 kts | 169° |
| 2026-05-04 12:30 | 38.99403 | 17.08102 | 527 ft | 153 kts | 169° |
| 2026-05-04 12:31 | 38.98289 | 17.08417 | 1156 ft | 166 kts | 167° |
| 2026-05-04 12:31 | 38.97191 | 17.08790 | 2137 ft | 165 kts | 169° |
| 2026-05-04 12:31 | 38.96019 | 17.09078 | 2744 ft | 185 kts | 171° |
| 2026-05-04 12:31 | 38.94630 | 17.09409 | 3047 ft | 219 kts | 171° |
| 2026-05-04 12:32 | 38.93047 | 17.09799 | 3446 ft | 241 kts | 170° |
| 2026-05-04 12:32 | 38.89476 | 17.09975 | 3936 ft | 265 kts | 205° |
| 2026-05-04 12:32 | 38.87851 | 17.08875 | 3978 ft | 265 kts | 213° |
| 2026-05-04 12:33 | 38.86285 | 17.07632 | 4041 ft | 265 kts | 219° |
| 2026-05-04 12:33 | 38.85247 | 17.05717 | 4601 ft | 268 kts | 256° |
| 2026-05-04 12:33 | 38.85028 | 17.04166 | 5275 ft | 266 kts | 263° |
| 2026-05-04 12:33 | 38.84797 | 17.01807 | 6241 ft | 268 kts | 264° |
| 2026-05-04 12:34 | 38.84556 | 16.99414 | 7068 ft | 274 kts | 263° |
| 2026-05-04 12:34 | 38.84284 | 16.96975 | 7950 ft | 277 kts | 263° |
| 2026-05-04 12:34 | 38.83985 | 16.94510 | 8774 ft | 283 kts | 263° |
| 2026-05-04 12:34 | 38.83662 | 16.92002 | 9617 ft | 287 kts | 262° |
| 2026-05-04 12:35 | 38.83320 | 16.89460 | 10440 ft | 292 kts | 262° |
| 2026-05-04 12:35 | 38.83098 | 16.86787 | 10705 ft | 314 kts | 277° |
| 2026-05-04 12:35 | 38.83724 | 16.84027 | 10933 ft | 334 kts | 294° |
| 2026-05-04 12:35 | 38.84685 | 16.81238 | 11408 ft | 347 kts | 296° |
| 2026-05-04 12:36 | 38.85712 | 16.78353 | 11665 ft | 367 kts | 296° |
| 2026-05-04 12:36 | 38.86787 | 16.75293 | 11878 ft | 385 kts | 295° |
| 2026-05-04 12:36 | 38.87880 | 16.72109 | 12384 ft | 393 kts | 295° |
| 2026-05-04 12:36 | 38.88964 | 16.68878 | 13085 ft | 395 kts | 294° |
| 2026-05-04 12:37 | 38.90036 | 16.65630 | 13799 ft | 397 kts | 294° |
| 2026-05-04 12:37 | 38.91109 | 16.62346 | 14397 ft | 400 kts | 294° |
| 2026-05-04 12:37 | 38.92182 | 16.59038 | 14967 ft | 403 kts | 293° |
| 2026-05-04 12:37 | 38.93261 | 16.55699 | 15536 ft | 406 kts | 293° |
| 2026-05-04 12:38 | 38.94346 | 16.52334 | 16132 ft | 409 kts | 293° |
| 2026-05-04 12:38 | 38.95438 | 16.48948 | 16725 ft | 412 kts | 293° |
| 2026-05-04 12:38 | 38.96535 | 16.45539 | 17291 ft | 414 kts | 293° |
| 2026-05-04 12:38 | 38.97640 | 16.42104 | 17855 ft | 417 kts | 293° |
| 2026-05-04 12:39 | 38.98749 | 16.38651 | 18410 ft | 420 kts | 293° |
| 2026-05-04 12:39 | 38.99863 | 16.35175 | 18897 ft | 421 kts | 293° |
| 2026-05-04 12:39 | 39.00981 | 16.31688 | 19410 ft | 422 kts | 293° |
| 2026-05-04 12:39 | 39.02102 | 16.28185 | 19881 ft | 425 kts | 293° |
| 2026-05-04 12:40 | 39.03226 | 16.24669 | 20396 ft | 426 kts | 293° |
| 2026-05-04 12:40 | 39.04351 | 16.21143 | 20915 ft | 427 kts | 293° |
| 2026-05-04 12:40 | 39.05479 | 16.17605 | 21405 ft | 428 kts | 293° |
| 2026-05-04 12:40 | 39.06610 | 16.14054 | 21877 ft | 430 kts | 293° |
| 2026-05-04 12:41 | 39.07743 | 16.10491 | 22302 ft | 432 kts | 293° |
| 2026-05-04 12:41 | 39.08881 | 16.06907 | 22709 ft | 433 kts | 293° |
| 2026-05-04 12:41 | 39.10023 | 16.03309 | 23122 ft | 435 kts | 293° |
| 2026-05-04 12:41 | 39.11166 | 15.99699 | 23520 ft | 436 kts | 293° |
| 2026-05-04 12:42 | 39.12313 | 15.96075 | 23860 ft | 438 kts | 293° |
| 2026-05-04 12:42 | 39.13462 | 15.92437 | 24155 ft | 440 kts | 293° |
| 2026-05-04 12:42 | 39.14600 | 15.88830 | 24453 ft | 441 kts | 293° |
| 2026-05-04 12:42 | 39.15755 | 15.85164 | 24759 ft | 442 kts | 293° |
| 2026-05-04 12:43 | 39.16914 | 15.81482 | 25067 ft | 444 kts | 293° |
| 2026-05-04 12:43 | 39.18077 | 15.77784 | 25306 ft | 447 kts | 293° |
| 2026-05-04 12:43 | 39.19244 | 15.74067 | 25585 ft | 448 kts | 293° |
| 2026-05-04 12:43 | 39.20429 | 15.70350 | 25880 ft | 448 kts | 295° |
| 2026-05-04 12:44 | 39.21895 | 15.66805 | 26126 ft | 449 kts | 302° |
| 2026-05-04 12:44 | 39.23738 | 15.63563 | 26354 ft | 449 kts | 310° |
| 2026-05-04 12:44 | 39.25772 | 15.60513 | 26659 ft | 448 kts | 310° |
| 2026-05-04 12:44 | 39.27795 | 15.57471 | 27012 ft | 446 kts | 310° |
| 2026-05-04 12:45 | 39.29801 | 15.54432 | 27380 ft | 444 kts | 310° |
| 2026-05-04 12:45 | 39.31789 | 15.51399 | 27743 ft | 442 kts | 310° |
| 2026-05-04 12:45 | 39.33766 | 15.48367 | 28093 ft | 440 kts | 310° |
| 2026-05-04 12:45 | 39.35733 | 15.45342 | 28459 ft | 439 kts | 309° |
| 2026-05-04 12:46 | 39.37690 | 15.42324 | 28840 ft | 437 kts | 309° |
| 2026-05-04 12:46 | 39.39638 | 15.39317 | 29230 ft | 435 kts | 309° |
| 2026-05-04 12:46 | 39.41576 | 15.36321 | 29611 ft | 434 kts | 309° |
| 2026-05-04 12:46 | 39.43509 | 15.33331 | 29993 ft | 432 kts | 309° |
| 2026-05-04 12:47 | 39.45432 | 15.30354 | 30360 ft | 431 kts | 309° |
| 2026-05-04 12:47 | 39.47347 | 15.27388 | 30718 ft | 428 kts | 309° |
| 2026-05-04 12:47 | 39.49244 | 15.24447 | 31141 ft | 424 kts | 309° |
| 2026-05-04 12:47 | 39.51121 | 15.21533 | 31561 ft | 420 kts | 309° |
| 2026-05-04 12:48 | 39.52985 | 15.18636 | 31928 ft | 417 kts | 309° |
| 2026-05-04 12:48 | 39.54837 | 15.15757 | 32280 ft | 415 kts | 309° |
| 2026-05-04 12:48 | 39.56678 | 15.12892 | 32642 ft | 412 kts | 309° |
| 2026-05-04 12:48 | 39.58506 | 15.10045 | 33011 ft | 409 kts | 309° |
| 2026-05-04 12:49 | 39.60321 | 15.07215 | 33360 ft | 407 kts | 309° |
| 2026-05-04 12:49 | 39.62123 | 15.04402 | 33711 ft | 405 kts | 309° |
| 2026-05-04 12:49 | 39.63916 | 15.01601 | 34068 ft | 402 kts | 309° |
| 2026-05-04 12:49 | 39.65697 | 14.98817 | 34371 ft | 400 kts | 309° |
| 2026-05-04 12:50 | 39.67472 | 14.96040 | 34577 ft | 400 kts | 309° |
| 2026-05-04 12:50 | 39.69229 | 14.93288 | 34743 ft | 401 kts | 309° |
| 2026-05-04 12:50 | 39.71031 | 14.90463 | 34956 ft | 400 kts | 308° |
| 2026-05-04 12:50 | 39.72778 | 14.87721 | 35212 ft | 399 kts | 309° |
| 2026-05-04 12:51 | 39.74543 | 14.84950 | 35437 ft | 398 kts | 309° |
| 2026-05-04 12:51 | 39.76310 | 14.82172 | 35612 ft | 399 kts | 309° |
| 2026-05-04 12:51 | 39.78075 | 14.79395 | 35806 ft | 398 kts | 309° |
| 2026-05-04 12:51 | 39.79836 | 14.76623 | 36024 ft | 398 kts | 309° |
| 2026-05-04 12:52 | 39.81598 | 14.73845 | 36154 ft | 398 kts | 309° |
| 2026-05-04 12:52 | 39.85128 | 14.68257 | 36153 ft | 399 kts | 309° |
| 2026-05-04 12:53 | 39.88638 | 14.62687 | 36159 ft | 397 kts | 309° |
| 2026-05-04 12:53 | 39.92128 | 14.57139 | 36161 ft | 395 kts | 309° |
| 2026-05-04 12:54 | 39.95606 | 14.51600 | 36159 ft | 395 kts | 308° |
| 2026-05-04 12:54 | 39.99082 | 14.46058 | 36159 ft | 395 kts | 309° |
| 2026-05-04 12:55 | 40.02555 | 14.40508 | 36161 ft | 395 kts | 308° |
| 2026-05-04 12:55 | 40.06036 | 14.34936 | 36159 ft | 396 kts | 308° |
| 2026-05-04 12:56 | 40.09519 | 14.29350 | 36157 ft | 397 kts | 308° |
| 2026-05-04 12:56 | 40.13006 | 14.23748 | 36159 ft | 398 kts | 308° |
| 2026-05-04 12:57 | 40.16495 | 14.18135 | 36158 ft | 398 kts | 308° |
| 2026-05-04 12:57 | 40.19987 | 14.12519 | 36161 ft | 398 kts | 308° |
| 2026-05-04 12:58 | 40.23501 | 14.06916 | 36162 ft | 398 kts | 308° |
| 2026-05-04 12:58 | 40.27017 | 14.01299 | 36161 ft | 399 kts | 308° |
| 2026-05-04 12:59 | 40.30521 | 13.95660 | 36167 ft | 400 kts | 308° |
| 2026-05-04 12:59 | 40.34014 | 13.89987 | 36162 ft | 400 kts | 308° |
| 2026-05-04 13:00 | 40.37486 | 13.84340 | 36147 ft | 401 kts | 307° |
| 2026-05-04 13:00 | 40.40980 | 13.78654 | 36159 ft | 400 kts | 307° |
| 2026-05-04 13:01 | 40.44471 | 13.72960 | 36161 ft | 400 kts | 307° |
| 2026-05-04 13:01 | 40.47957 | 13.67259 | 36157 ft | 400 kts | 307° |
| 2026-05-04 13:02 | 40.51443 | 13.61549 | 36157 ft | 400 kts | 307° |
| 2026-05-04 13:02 | 40.54927 | 13.55835 | 36178 ft | 400 kts | 307° |
| 2026-05-04 13:03 | 40.58412 | 13.50109 | 36164 ft | 402 kts | 307° |
| 2026-05-04 13:03 | 40.61901 | 13.44368 | 36156 ft | 402 kts | 307° |
| 2026-05-04 13:04 | 40.65388 | 13.38617 | 36155 ft | 402 kts | 307° |
| 2026-05-04 13:04 | 40.68875 | 13.32858 | 36156 ft | 402 kts | 307° |
| 2026-05-04 13:05 | 40.72358 | 13.27093 | 36156 ft | 402 kts | 307° |
| 2026-05-04 13:05 | 40.75839 | 13.21318 | 36154 ft | 402 kts | 307° |
| 2026-05-04 13:06 | 40.79317 | 13.15538 | 36154 ft | 402 kts | 307° |
| 2026-05-04 13:06 | 40.82794 | 13.09748 | 36161 ft | 403 kts | 306° |
| 2026-05-04 13:07 | 40.86272 | 13.03943 | 36155 ft | 403 kts | 306° |
| 2026-05-04 13:07 | 40.89756 | 12.98121 | 36153 ft | 404 kts | 306° |
| 2026-05-04 13:08 | 40.93470 | 12.92530 | 36151 ft | 406 kts | 311° |
| 2026-05-04 13:08 | 40.97436 | 12.87207 | 36150 ft | 406 kts | 311° |
| 2026-05-04 13:09 | 41.01398 | 12.81871 | 36150 ft | 406 kts | 311° |
| 2026-05-04 13:09 | 41.05315 | 12.76554 | 36133 ft | 406 kts | 311° |
| 2026-05-04 13:10 | 41.09256 | 12.71185 | 36153 ft | 407 kts | 311° |
| 2026-05-04 13:10 | 41.13203 | 12.65796 | 36148 ft | 408 kts | 311° |
| 2026-05-04 13:11 | 41.17155 | 12.60390 | 36146 ft | 408 kts | 311° |
| 2026-05-04 13:11 | 41.21108 | 12.54977 | 36148 ft | 408 kts | 311° |
| 2026-05-04 13:12 | 41.25064 | 12.49557 | 36148 ft | 409 kts | 311° |
| 2026-05-04 13:12 | 41.29027 | 12.44139 | 36146 ft | 409 kts | 311° |
| 2026-05-04 13:13 | 41.32987 | 12.38713 | 36147 ft | 409 kts | 311° |
| 2026-05-04 13:13 | 41.36948 | 12.33273 | 36147 ft | 410 kts | 310° |
| 2026-05-04 13:14 | 41.40913 | 12.27816 | 36146 ft | 410 kts | 310° |
| 2026-05-04 13:14 | 41.44877 | 12.22352 | 36144 ft | 410 kts | 310° |
| 2026-05-04 13:15 | 41.48841 | 12.16877 | 36142 ft | 410 kts | 310° |
| 2026-05-04 13:15 | 41.52798 | 12.11396 | 36146 ft | 410 kts | 310° |
| 2026-05-04 13:16 | 41.56748 | 12.05908 | 36157 ft | 410 kts | 310° |
| 2026-05-04 13:16 | 41.60706 | 12.00399 | 36152 ft | 411 kts | 310° |
| 2026-05-04 13:17 | 41.64663 | 11.94881 | 36154 ft | 411 kts | 310° |
| 2026-05-04 13:17 | 41.68621 | 11.89353 | 36162 ft | 411 kts | 310° |
| 2026-05-04 13:18 | 41.72578 | 11.83816 | 36159 ft | 412 kts | 310° |
| 2026-05-04 13:18 | 41.76507 | 11.78310 | 36155 ft | 412 kts | 310° |
| 2026-05-04 13:19 | 41.80460 | 11.72761 | 36149 ft | 412 kts | 310° |
| 2026-05-04 13:19 | 41.84375 | 11.67250 | 36141 ft | 413 kts | 309° |
| 2026-05-04 13:20 | 41.88329 | 11.61671 | 36131 ft | 413 kts | 309° |
| 2026-05-04 13:20 | 41.92286 | 11.56076 | 36131 ft | 413 kts | 309° |
| 2026-05-04 13:21 | 41.96238 | 11.50478 | 36131 ft | 413 kts | 309° |
| 2026-05-04 13:21 | 42.00188 | 11.44873 | 36128 ft | 413 kts | 309° |
| 2026-05-04 13:22 | 42.04134 | 11.39264 | 36122 ft | 413 kts | 309° |
| 2026-05-04 13:22 | 42.08081 | 11.33645 | 36130 ft | 413 kts | 309° |
| 2026-05-04 13:23 | 42.11364 | 11.28967 | 36122 ft | 414 kts | 309° |
| 2026-05-04 13:23 | 42.15316 | 11.23325 | 36127 ft | 414 kts | 309° |
| 2026-05-04 13:24 | 42.19263 | 11.17679 | 36128 ft | 414 kts | 309° |
| 2026-05-04 13:24 | 42.23213 | 11.12019 | 36124 ft | 414 kts | 309° |
| 2026-05-04 13:25 | 42.29129 | 11.03519 | 36123 ft | 414 kts | 309° |
| 2026-05-04 13:25 | 42.33069 | 10.97843 | 36122 ft | 414 kts | 308° |
| 2026-05-04 13:26 | 42.37005 | 10.92163 | 36122 ft | 414 kts | 308° |
| 2026-05-04 13:26 | 42.40939 | 10.86481 | 36118 ft | 414 kts | 309° |
| 2026-05-04 13:27 | 42.44872 | 10.80791 | 36119 ft | 414 kts | 308° |
| 2026-05-04 13:27 | 42.48799 | 10.75096 | 36117 ft | 414 kts | 308° |
| 2026-05-04 13:28 | 42.52723 | 10.69395 | 36124 ft | 414 kts | 308° |
| 2026-05-04 13:28 | 42.56649 | 10.63678 | 36115 ft | 415 kts | 308° |
| 2026-05-04 13:29 | 42.60579 | 10.57945 | 36117 ft | 415 kts | 308° |
| 2026-05-04 13:29 | 42.64510 | 10.52199 | 36111 ft | 415 kts | 308° |
| 2026-05-04 13:30 | 42.68441 | 10.46441 | 36112 ft | 415 kts | 308° |
| 2026-05-04 13:30 | 42.72371 | 10.40678 | 36112 ft | 416 kts | 308° |
| 2026-05-04 13:31 | 42.76729 | 10.35412 | 36120 ft | 422 kts | 316° |
| 2026-05-04 13:31 | 42.81329 | 10.30427 | 36105 ft | 423 kts | 316° |
| 2026-05-04 13:32 | 42.85934 | 10.25416 | 36102 ft | 424 kts | 316° |
| 2026-05-04 13:32 | 42.90530 | 10.20356 | 36095 ft | 425 kts | 315° |
| 2026-05-04 13:33 | 42.95119 | 10.15270 | 36098 ft | 425 kts | 315° |
| 2026-05-04 13:33 | 42.99675 | 10.10205 | 36104 ft | 426 kts | 315° |
| 2026-05-04 13:34 | 43.04299 | 10.05051 | 36099 ft | 427 kts | 315° |
| 2026-05-04 13:34 | 43.08872 | 9.99948 | 36096 ft | 428 kts | 315° |
| 2026-05-04 13:35 | 43.15789 | 9.92209 | 36085 ft | 428 kts | 315° |
| 2026-05-04 13:36 | 43.20396 | 9.87042 | 36087 ft | 428 kts | 315° |
| 2026-05-04 13:36 | 43.25015 | 9.81849 | 36094 ft | 430 kts | 315° |
| 2026-05-04 13:37 | 43.29643 | 9.76636 | 36080 ft | 431 kts | 315° |
| 2026-05-04 13:37 | 43.34273 | 9.71412 | 36082 ft | 431 kts | 315° |
| 2026-05-04 13:38 | 43.38920 | 9.66154 | 35673 ft | 433 kts | 315° |
| 2026-05-04 13:38 | 43.41246 | 9.63520 | 35250 ft | 434 kts | 315° |
| 2026-05-04 13:38 | 43.43577 | 9.60878 | 34865 ft | 435 kts | 316° |
| 2026-05-04 13:38 | 43.45927 | 9.58208 | 34453 ft | 441 kts | 316° |
| 2026-05-04 13:39 | 43.48304 | 9.55505 | 34021 ft | 445 kts | 316° |
| 2026-05-04 13:39 | 43.50698 | 9.52781 | 33529 ft | 448 kts | 316° |
| 2026-05-04 13:39 | 43.53106 | 9.50040 | 33086 ft | 450 kts | 316° |
| 2026-05-04 13:39 | 43.55518 | 9.47292 | 32649 ft | 451 kts | 316° |
| 2026-05-04 13:40 | 43.57938 | 9.44533 | 32228 ft | 452 kts | 316° |
| 2026-05-04 13:40 | 43.60360 | 9.41768 | 31798 ft | 452 kts | 316° |
| 2026-05-04 13:40 | 43.62785 | 9.38995 | 31381 ft | 453 kts | 316° |
| 2026-05-04 13:40 | 43.65214 | 9.36214 | 30966 ft | 454 kts | 316° |
| 2026-05-04 13:41 | 43.67649 | 9.33424 | 30547 ft | 455 kts | 316° |
| 2026-05-04 13:41 | 43.70088 | 9.30626 | 30132 ft | 457 kts | 316° |
| 2026-05-04 13:41 | 43.72535 | 9.27815 | 29637 ft | 458 kts | 316° |
| 2026-05-04 13:42 | 43.77440 | 9.22172 | 28743 ft | 460 kts | 316° |
| 2026-05-04 13:42 | 43.79904 | 9.19333 | 28306 ft | 462 kts | 317° |
| 2026-05-04 13:42 | 43.82379 | 9.16477 | 27852 ft | 464 kts | 317° |
| 2026-05-04 13:42 | 43.84863 | 9.13608 | 27391 ft | 467 kts | 317° |
| 2026-05-04 13:43 | 43.87362 | 9.10719 | 26959 ft | 469 kts | 317° |
| 2026-05-04 13:43 | 43.89875 | 9.07811 | 26506 ft | 472 kts | 317° |
| 2026-05-04 13:43 | 43.92407 | 9.04876 | 26042 ft | 475 kts | 317° |
| 2026-05-04 13:43 | 43.94947 | 9.01929 | 25585 ft | 477 kts | 317° |
| 2026-05-04 13:44 | 43.97497 | 8.98967 | 25131 ft | 479 kts | 317° |
| 2026-05-04 13:44 | 44.00050 | 8.95998 | 24670 ft | 476 kts | 317° |
| 2026-05-04 13:44 | 44.02572 | 8.93065 | 24213 ft | 470 kts | 317° |
| 2026-05-04 13:44 | 44.05066 | 8.90161 | 23775 ft | 466 kts | 317° |
| 2026-05-04 13:45 | 44.07548 | 8.87266 | 23261 ft | 465 kts | 317° |
| 2026-05-04 13:45 | 44.10024 | 8.84373 | 22769 ft | 464 kts | 317° |
| 2026-05-04 13:45 | 44.12490 | 8.81489 | 22307 ft | 462 kts | 317° |
| 2026-05-04 13:45 | 44.14942 | 8.78618 | 21873 ft | 460 kts | 317° |
| 2026-05-04 13:46 | 44.17382 | 8.75758 | 21420 ft | 458 kts | 317° |
| 2026-05-04 13:46 | 44.19780 | 8.72944 | 20985 ft | 456 kts | 317° |
| 2026-05-04 13:46 | 44.22230 | 8.70066 | 20547 ft | 453 kts | 317° |
| 2026-05-04 13:46 | 44.24635 | 8.67238 | 20109 ft | 451 kts | 317° |
| 2026-05-04 13:47 | 44.26996 | 8.64459 | 19689 ft | 449 kts | 317° |
| 2026-05-04 13:47 | 44.29375 | 8.61653 | 19265 ft | 447 kts | 317° |
| 2026-05-04 13:47 | 44.31738 | 8.58865 | 18849 ft | 445 kts | 317° |
| 2026-05-04 13:47 | 44.34098 | 8.56077 | 18419 ft | 442 kts | 317° |
| 2026-05-04 13:48 | 44.36439 | 8.53309 | 17938 ft | 440 kts | 317° |
| 2026-05-04 13:48 | 44.38765 | 8.50556 | 17480 ft | 437 kts | 317° |
| 2026-05-04 13:48 | 44.40981 | 8.47680 | 17020 ft | 432 kts | 310° |
| 2026-05-04 13:48 | 44.42971 | 8.44565 | 16604 ft | 427 kts | 307° |
| 2026-05-04 13:49 | 44.44874 | 8.41394 | 16183 ft | 424 kts | 307° |
| 2026-05-04 13:49 | 44.46759 | 8.38242 | 15768 ft | 422 kts | 307° |
| 2026-05-04 13:49 | 44.48655 | 8.35122 | 15360 ft | 420 kts | 308° |
| 2026-05-04 13:49 | 44.50561 | 8.32037 | 14949 ft | 418 kts | 308° |
| 2026-05-04 13:50 | 44.52473 | 8.28974 | 14545 ft | 417 kts | 308° |
| 2026-05-04 13:50 | 44.54370 | 8.25946 | 14247 ft | 404 kts | 308° |
| 2026-05-04 13:50 | 44.56166 | 8.23084 | 14095 ft | 378 kts | 308° |
| 2026-05-04 13:50 | 44.57858 | 8.20378 | 13976 ft | 358 kts | 307° |
| 2026-05-04 13:51 | 44.59443 | 8.17831 | 13834 ft | 336 kts | 307° |
| 2026-05-04 13:51 | 44.60935 | 8.15423 | 13692 ft | 318 kts | 307° |
| 2026-05-04 13:51 | 44.62358 | 8.13119 | 13617 ft | 307 kts | 307° |
| 2026-05-04 13:51 | 44.63739 | 8.10882 | 13436 ft | 301 kts | 307° |
| 2026-05-04 13:52 | 44.66463 | 8.06470 | 12934 ft | 293 kts | 307° |
| 2026-05-04 13:52 | 44.67780 | 8.04340 | 12817 ft | 285 kts | 307° |
| 2026-05-04 13:52 | 44.69071 | 8.02250 | 12574 ft | 282 kts | 307° |
| 2026-05-04 13:53 | 44.70358 | 8.00168 | 12267 ft | 282 kts | 307° |
| 2026-05-04 13:53 | 44.71628 | 7.98113 | 12002 ft | 282 kts | 307° |
| 2026-05-04 13:53 | 44.72915 | 7.96028 | 11749 ft | 283 kts | 307° |
| 2026-05-04 13:54 | 44.75379 | 7.91737 | 11470 ft | 279 kts | 292° |
| 2026-05-04 13:54 | 44.75742 | 7.89157 | 11309 ft | 268 kts | 259° |
| 2026-05-04 13:54 | 44.74676 | 7.84287 | 11081 ft | 259 kts | 244° |
| 2026-05-04 13:55 | 44.73992 | 7.81938 | 10930 ft | 260 kts | 243° |
| 2026-05-04 13:55 | 44.72731 | 7.77158 | 10495 ft | 265 kts | 259° |
| 2026-05-04 13:55 | 44.72955 | 7.74569 | 10186 ft | 275 kts | 290° |
| 2026-05-04 13:56 | 44.74016 | 7.72323 | 9942 ft | 279 kts | 310° |
| 2026-05-04 13:56 | 44.75379 | 7.70374 | 9650 ft | 279 kts | 313° |
| 2026-05-04 13:56 | 44.78093 | 7.66518 | 9202 ft | 272 kts | 312° |
| 2026-05-04 13:57 | 44.79397 | 7.64637 | 8980 ft | 264 kts | 312° |
| 2026-05-04 13:57 | 44.80790 | 7.63026 | 8733 ft | 259 kts | 336° |
| 2026-05-04 13:58 | 44.85966 | 7.62757 | 7863 ft | 246 kts | 4° |
| 2026-05-04 13:58 | 44.89357 | 7.63015 | 7206 ft | 243 kts | 4° |
| 2026-05-04 13:58 | 44.91040 | 7.63125 | 6887 ft | 243 kts | 4° |
| 2026-05-04 13:59 | 44.92727 | 7.63233 | 6692 ft | 240 kts | 4° |
| 2026-05-04 13:59 | 44.94368 | 7.63335 | 6625 ft | 232 kts | 4° |
| 2026-05-04 13:59 | 44.97533 | 7.63535 | 6336 ft | 225 kts | 4° |
| 2026-05-04 14:00 | 44.99089 | 7.63634 | 6126 ft | 221 kts | 4° |
| 2026-05-04 14:00 | 45.01953 | 7.64175 | 5652 ft | 208 kts | 32° |
| 2026-05-04 14:00 | 45.02932 | 7.65718 | 5216 ft | 216 kts | 69° |
| 2026-05-04 14:01 | 45.03120 | 7.67789 | 5130 ft | 214 kts | 94° |
| 2026-05-04 14:01 | 45.02961 | 7.69847 | 4997 ft | 215 kts | 108° |
| 2026-05-04 14:01 | 45.00698 | 7.72379 | 4759 ft | 225 kts | 175° |
| 2026-05-04 14:02 | 44.99153 | 7.72325 | 4648 ft | 226 kts | 182° |
| 2026-05-04 14:02 | 44.97626 | 7.71807 | 4491 ft | 229 kts | 209° |
| 2026-05-04 14:02 | 44.96509 | 7.70235 | 4362 ft | 230 kts | 243° |
| 2026-05-04 14:02 | 44.96157 | 7.68072 | 4297 ft | 226 kts | 270° |
| 2026-05-04 14:03 | 44.96191 | 7.65867 | 4233 ft | 224 kts | 274° |
| 2026-05-04 14:03 | 44.96646 | 7.63800 | 4059 ft | 223 kts | 309° |
| 2026-05-04 14:03 | 44.97921 | 7.62643 | 4004 ft | 223 kts | 350° |
| 2026-05-04 14:03 | 44.99448 | 7.62903 | 3993 ft | 225 kts | 19° |
| 2026-05-04 14:04 | 45.02502 | 7.63768 | 3966 ft | 221 kts | 6° |
| 2026-05-04 14:04 | 45.04005 | 7.63942 | 3862 ft | 213 kts | 3° |
| 2026-05-04 14:04 | 45.05465 | 7.64042 | 3617 ft | 207 kts | 3° |
| 2026-05-04 14:05 | 45.08215 | 7.64212 | 3126 ft | 191 kts | 4° |
| 2026-05-04 14:05 | 45.09524 | 7.64295 | 2859 ft | 186 kts | 3° |
| 2026-05-04 14:05 | 45.10802 | 7.64375 | 2609 ft | 181 kts | 4° |
| 2026-05-04 14:06 | 45.12042 | 7.64455 | 2368 ft | 177 kts | 5° |
| 2026-05-04 14:06 | 45.13248 | 7.64532 | 2134 ft | 169 kts | 3° |
| 2026-05-04 14:06 | 45.14366 | 7.64602 | 1912 ft | 154 kts | 3° |
| 2026-05-04 14:06 | 45.15400 | 7.64668 | 1703 ft | 146 kts | 2° |
| 2026-05-04 14:07 | 45.16427 | 7.64731 | 1549 ft | 150 kts | 1° |
| 2026-05-04 14:07 | 45.17487 | 7.64799 | 1374 ft | 152 kts | 360° |
| 2026-05-04 14:07 | 45.18540 | 7.64866 | 1100 ft | 150 kts | 360° |
| 2026-05-04 14:07 | 45.19524 | 7.64926 | 989 ft | 126 kts | 2° |
| 2026-05-04 14:08 | 45.20182 | 7.64972 | 981 ft | 68 kts | 3° |
| 2026-05-04 14:08 | 45.20621 | 7.64998 | 983 ft | 59 kts | 2° |
| 2026-05-04 14:08 | 45.20857 | 7.64942 | 984 ft | 27 kts | 304° |
| 2026-05-04 14:08 | 45.20843 | 7.64772 | 990 ft | 16 kts | 220° |
| 2026-05-04 14:09 | 45.20628 | 7.64733 | 991 ft | 15 kts | 181° |
| 2026-05-04 14:09 | 45.20523 | 7.64726 | 985 ft | 16 kts | 184° |
| 2026-05-04 14:10 | 45.20263 | 7.64708 | 984 ft | 19 kts | 184° |
| 2026-05-04 14:10 | 45.20135 | 7.64699 | 984 ft | 18 kts | 182° |
| 2026-05-04 14:10 | 45.20052 | 7.64695 | 991 ft | 18 kts | 182° |
| 2026-05-04 14:10 | 45.19932 | 7.64686 | 984 ft | 17 kts | 182° |
| 2026-05-04 14:11 | 45.19815 | 7.64681 | 984 ft | 16 kts | 176° |
| 2026-05-04 14:11 | 45.19596 | 7.64690 | 985 ft | 15 kts | 182° |
| 2026-05-04 14:11 | 45.19482 | 7.64686 | 985 ft | 11 kts | 180° |
| 2026-05-04 14:12 | 45.19444 | 7.64683 | 987 ft | 5 kts | 183° |
| 2026-05-04 14:12 | 45.19418 | 7.64681 | 985 ft | 3 kts | 185° |
| 2026-05-04 14:12 | 45.19367 | 7.64620 | 985 ft | 9 kts | 283° |
| 2026-05-04 14:13 | 45.19382 | 7.64539 | 988 ft | 7 kts | 271° |
| 2026-05-04 14:13 | 45.19359 | 7.64481 | 989 ft | 2 kts | 232° |
| 2026-05-04 14:13 | 45.19354 | 7.64472 | 993 ft | 0 kts | 232° |